Seat Pleasant, Maryland
Current Conditions -  °F | °C
As of 8:58 AM on Sunday 23 Nov 2014 (Local Time) from KADW Reporting Station
Clear Clear  
Wind Chill: 39°   Ceiling: Unl
Heat Index: 42°   Visibility: 10mi
Dew Point: 22°   Wind: 5mph
Humidity: 44%   Direction: 200°SSW
Pressure: 30.22"   Gusts: NA
Location:  38.8854°N, 76.8965°W
Report Text: KADW 231358Z AUTO 20004KT 10SM CLR 06/M06 A3022 RMK AO2 SLP242 T00571058 $
Loading
Personal Weather Stations






























Interactive Weather Map New forecast layout! Learn more

10-Day Weather Forecast

Advertisements
Track Severe Weather on mobile